Weather reports worldwide

Advertisment
Bourg-St-Maurice, France (7497): temperature & dewpoint: 16.03.2019 18:00:00 - 22.03.2019 18:00:00 (CET)Bourg-St-Maurice, France (7497): temperature -20cm & temperature -100cm: 16.03.2019 18:00:00 - 22.03.2019 18:00:00 (CET)Bourg-St-Maurice, France (7497): wind speed & gusts: 16.03.2019 18:00:00 - 22.03.2019 18:00:00 (CET)Bourg-St-Maurice, France (7497): wind direction: 16.03.2019 18:00:00 - 22.03.2019 18:00:00 (CET)Bourg-St-Maurice, France (7497): sunshine duration: 16.03.2019 18:00:00 - 22.03.2019 18:00:00 (CET)Bourg-St-Maurice, France (7497): precipitation: 16.03.2019 18:00:00 - 22.03.2019 18:00:00 (CET)
Date & Time tt [°C] td [°C] tt -20cm [°C] tt -100cm [°C] ff [km/h] ff [kn] fx [km/h] fx [kn] dd sd [min] rr [mm]
22.03.2019 18:00:00 14,2 -7,3 8,0 6,0 4 2 20 11 NNE 18 0,0
22.03.2019 17:00:00 16,5 -7,9 7,8 6,0 11 6 16 9 NW 60 0,0
22.03.2019 16:00:00 19,7 -10,6 7,4 6,0 5 3 16 9 WNW 60 0,0
22.03.2019 15:00:00 20,5 -12,2 6,8 6,0 5 3 18 10 SSW 60 0,0
22.03.2019 14:00:00 20,0 -12,6 6,2 6,0 3 1 14 8 NE 60 0,0
22.03.2019 13:00:00 20,0 -11,4 5,7 6,0 2 1 10 5 SSE 60 0,0
22.03.2019 12:00:00 17,7 -13,2 5,4 6,0 4 2 10 5 S 60 0,0
22.03.2019 11:00:00 14,4 -9,0 5,1 6,0 3 2 8 5 SE 60 0,0
22.03.2019 10:00:00 10,6 -6,7 5,1 6,0 3 2 6 3 E 60 0,0
22.03.2019 09:00:00 6,4 -6,6 5,3 6,0 0 0 9 5 N 60 0,0
22.03.2019 08:00:00 1,0 -5,9 5,4 6,0 5 3 8 4 NNE 3 0,0
22.03.2019 07:00:00 0,5 -6,4 5,6 6,0 3 1 10 5 NNE 0 0,0
22.03.2019 06:00:00 0,4 -6,3 5,8 6,0 4 2 7 4 NNW 0 0,0
22.03.2019 05:00:00 0,4 -5,8 6,0 6,0 0 0 6 3 N 0 0,0
22.03.2019 04:00:00 0,8 -5,7 6,1 6,0 4 2 6 3 N 0 0,0
22.03.2019 03:00:00 1,5 -5,2 6,3 6,0 3 2 6 4 N 0 0,0
22.03.2019 02:00:00 1,8 -5,2 6,5 6,0 3 2 10 5 NNW 0 0,0
22.03.2019 01:00:00 2,3 -4,7 6,6 6,0 0 0 7 4 N 0 0,0
22.03.2019 00:00:00 3,4 -4,6 6,8 5,9 2 1 8 4 WNW 0 0,0
21.03.2019 23:00:00 4,1 -4,1 6,9 6,0 3 2 6 3 NW 0 0,0
21.03.2019 22:00:00 5,1 -4,2 7,0 5,9 2 1 7 4 N 0 0,0
21.03.2019 21:00:00 6,6 -5,4 7,1 5,9 0 0 8 5 N 0 0,0
21.03.2019 20:00:00 9,8 -7,9 7,1 5,9 0 0 22 12 N 0 0,0
21.03.2019 19:00:00 11,8 -9,3 7,1 5,9 9 5 23 12 NNW 0 0,0
21.03.2019 18:00:00 13,9 -10,1 7,0 5,9 8 5 30 16 NNW 18 0,0
21.03.2019 17:00:00 16,5 -12,1 6,8 5,9 16 8 37 20 ENE 60 0,0
21.03.2019 16:00:00 17,3 -10,5 6,5 5,9 17 9 43 23 NE 60 0,0
21.03.2019 15:00:00 17,5 -12,3 6,1 5,9 16 9 44 24 ENE 60 0,0
21.03.2019 14:00:00 17,4 -13,4 5,6 5,9 21 11 48 26 ENE 60 0,0
21.03.2019 13:00:00 16,4 -10,4 5,2 5,9 22 12 54 29 NE 60 0,0
21.03.2019 12:00:00 15,8 -11,7 4,9 5,9 20 11 48 26 NE 60 0,0
21.03.2019 11:00:00 10,3 -5,7 4,7 5,9 9 5 14 7 S 60 0,0
21.03.2019 10:00:00 6,5 -5,8 4,8 5,9 4 2 8 5 ENE 60 0,0
21.03.2019 09:00:00 2,3 -4,9 5,0 5,9 4 2 7 4 S 60 0,0
21.03.2019 08:00:00 -1,2 -6,2 5,1 5,9 4 2 10 5 NNE 0 0,0
21.03.2019 07:00:00 -2,2 -5,5 5,3 5,9 3 2 6 3 NNW 0 0,0
21.03.2019 06:00:00 -1,8 -5,3 5,4 5,9 4 2 6 4 NW 0 0,0
21.03.2019 05:00:00 -1,5 -5,4 5,6 5,9 2 1 8 5 N 0 0,0
21.03.2019 04:00:00 -1,3 -4,8 5,8 5,9 3 1 8 5 N 0 0,0
21.03.2019 03:00:00 -0,8 -4,9 6,0 5,8 3 1 6 4 N 0 0,0
21.03.2019 02:00:00 -0,4 -4,3 6,1 5,9 4 2 8 5 N 0 0,0
21.03.2019 01:00:00 0,1 -4,0 6,3 5,8 2 1 6 4 N 0 0,0
21.03.2019 00:00:00 0,7 -4,0 6,5 5,8 2 1 6 3 NNW 0 0,0
20.03.2019 23:00:00 1,6 -4,1 6,6 5,8 3 2 6 4 NNE 0 0,0
20.03.2019 22:00:00 2,4 -3,7 6,8 5,8 3 1 7 4 NNW 0 0,0
20.03.2019 21:00:00 3,7 -4,5 6,9 5,8 5 3 8 5 NNE 0 0,0
20.03.2019 20:00:00 5,1 -4,5 6,9 5,8 3 2 11 6 N 0 0,0
20.03.2019 19:00:00 6,8 -5,6 6,9 5,8 6 4 15 8 WNW 0 0,0
20.03.2019 18:00:00 8,4 -6,6 6,8 5,8 5 3 13 7 WNW 17 0,0
20.03.2019 17:00:00 11,8 -5,2 6,6 5,8 6 3 14 8 WSW 60 0,0
20.03.2019 16:00:00 13,8 -8,8 6,2 5,8 6 3 14 8 ENE 60 0,0
20.03.2019 15:00:00 14,1 -9,9 5,7 5,8 4 2 14 8 SW 60 0,0
20.03.2019 14:00:00 12,9 -9,6 5,2 5,8 4 2 17 9 ESE 60 0,0
20.03.2019 13:00:00 12,3 -8,3 4,8 5,8 8 4 15 8 SSE 60 0,0
20.03.2019 12:00:00 10,0 -8,2 4,5 5,7 5 3 15 8 SE 60 0,0
20.03.2019 11:00:00 7,6 -8,5 4,4 5,8 7 4 13 7 S 60 0,0
20.03.2019 10:00:00 4,8 -8,7 4,5 5,7 4 2 8 5 ESE 60 0,0
20.03.2019 09:00:00 1,9 -8,2 4,7 5,8 3 2 8 4 E 58 0,0
20.03.2019 08:00:00 -2,8 -7,3 4,8 5,7 0 0 7 4 N 0 0,0
20.03.2019 07:00:00 -3,4 -6,9 5,0 5,7 3 2 5 3 NNW 0 0,0
20.03.2019 06:00:00 -2,8 -6,6 5,1 5,7 0 0 5 3 N 0 0,0
20.03.2019 05:00:00 -2,5 -7,2 5,4 5,7 4 2 6 3 NNE 0 0,0
20.03.2019 04:00:00 -2,4 -6,4 5,5 5,7 3 2 5 3 NNE 0 0,0
20.03.2019 03:00:00 -1,9 -6,3 5,7 5,7 2 1 5 3 N 0 0,0
20.03.2019 02:00:00 -1,5 -6,3 5,9 5,7 0 0 6 3 N 0 0,0
20.03.2019 01:00:00 -1,0 -6,4 6,1 5,7 4 2 7 4 N 0 0,0
20.03.2019 00:00:00 -0,5 -6,1 6,3 5,7 3 1 5 3 NNW 0 0,0
19.03.2019 23:00:00 0,3 -6,1 6,5 5,7 3 2 6 3 NNW 0 0,0
19.03.2019 22:00:00 0,9 -5,8 6,6 5,7 3 2 7 4 NNW 0 0,0
19.03.2019 21:00:00 1,9 -5,3 6,8 5,7 0 0 11 6 N 0 0,0
19.03.2019 20:00:00 3,1 -5,3 6,9 5,7 4 2 9 5 NW 0 0,0
19.03.2019 19:00:00 4,1 -5,7 6,9 5,7 5 3 11 6 W 0 0,0
19.03.2019 18:00:00 5,8 -7,5 6,9 5,7 5 3 16 8 NW 16 0,0
19.03.2019 17:00:00 8,2 -7,5 6,8 5,6 7 4 16 8 WNW 60 0,0
19.03.2019 16:00:00 9,2 -10,4 6,5 5,6 10 5 24 13 NNE 50 0,0
19.03.2019 15:00:00 9,7 -10,5 6,0 5,6 9 5 26 14 NE 60 0,0
19.03.2019 14:00:00 9,5 -10,1 5,5 5,6 5 3 13 7 E 60 0,0
19.03.2019 13:00:00 9,5 -7,2 5,1 5,6 5 3 14 8 S 60 0,0
19.03.2019 12:00:00 7,8 -8,7 4,8 5,6 5 3 16 9 E 60 0,0
19.03.2019 11:00:00 7,0 -7,8 4,6 5,6 5 3 10 6 SE 60 0,0
19.03.2019 10:00:00 5,1 -8,4 4,6 5,6 3 1 9 5 E 60 0,0
19.03.2019 09:00:00 2,5 -8,8 4,8 5,6 4 2 11 6 NE 54 0,0
19.03.2019 08:00:00 -1,2 -7,6 4,9 5,6 3 1 10 5 NNW 0 0,0
19.03.2019 07:00:00 -0,9 -7,7 5,0 5,6 4 2 9 5 N 0 0,0
19.03.2019 06:00:00 -0,9 -3,6 5,2 5,6 4 2 5 3 N 0 0,0
19.03.2019 05:00:00 -0,4 -2,9 5,3 5,6 0 0 6 4 N 0 0,0
19.03.2019 04:00:00 0,5 -2,9 5,4 5,6 2 1 8 4 SW 0 0,0
19.03.2019 03:00:00 0,9 -2,7 5,5 5,6 0 0 9 5 N 0 0,0
19.03.2019 02:00:00 1,1 -2,8 5,6 5,5 0 0 6 3 N 0 0,0
19.03.2019 01:00:00 1,0 -2,8 5,7 5,6 3 1 5 3 N 0 0,0
19.03.2019 00:00:00 1,8 -2,5 5,8 5,6 0 0 4 2 N 0 0,0
18.03.2019 23:00:00 2,1 -3,4 5,9 5,6 0 0 8 5 N 0 0,0
18.03.2019 22:00:00 2,5 -3,2 6,0 5,6 3 2 7 4 SW 0 0,0
18.03.2019 21:00:00 2,6 -4,0 6,1 5,6 2 1 7 4 WNW 0 0,0
18.03.2019 20:00:00 3,3 -3,7 6,1 5,5 3 2 22 12 W 0 0,0
18.03.2019 19:00:00 4,6 -4,2 6,1 5,6 5 3 23 12 SSW 0 0,0
18.03.2019 18:00:00 5,1 -4,5 6,0 5,6 11 6 25 14 S 8 0,0
18.03.2019 17:00:00 6,8 -4,9 5,9 5,5 11 6 30 16 S 52 0,0
18.03.2019 16:00:00 7,8 -7,5 5,7 5,5 10 5 23 12 WNW 57 0,0
18.03.2019 15:00:00 6,9 -7,2 5,5 5,5 9 5 31 17 NE 15 0,0
18.03.2019 14:00:00 8,8 -4,4 5,2 5,5 8 5 23 13 S 17 0,0
18.03.2019 13:00:00 7,4 -7,5 5,1 5,5 9 5 29 16 NE 26 0,0
18.03.2019 12:00:00 5,7 -6,9 4,9 5,5 9 5 24 13 NNE 13 0,0
18.03.2019 11:00:00 4,9 -3,9 4,8 5,5 7 4 31 17 ENE 12 0,0
18.03.2019 10:00:00 5,0 -2,6 4,7 5,5 16 9 31 17 SSE 60 0,0
18.03.2019 09:00:00 3,6 -1,0 4,8 5,5 8 4 21 11 S 60 0,0
18.03.2019 08:00:00 0,8 -1,1 4,9 5,5 12 6 21 11 SSW 0 0,0
18.03.2019 07:00:00 0,5 -1,4 5,0 5,5 5 3 27 15 WSW 0 0,0
18.03.2019 06:00:00 0,5 -1,1 5,1 5,5 14 8 32 17 SSW 0 0,0
18.03.2019 05:00:00 0,7 -1,1 5,2 5,5 13 7 22 12 SW 0 0,0
18.03.2019 04:00:00 0,9 -0,7 5,3 5,5 5 3 26 14 SW 0 0,0
18.03.2019 03:00:00 1,3 -0,8 5,5 5,5 3 2 20 11 WNW 0 0,0
18.03.2019 02:00:00 1,6 -1,1 5,6 5,5 9 5 21 11 W 0 0,0
18.03.2019 01:00:00 1,7 -1,4 5,7 5,5 5 3 12 6 WSW 0 0,0
18.03.2019 00:00:00 2,1 -0,5 5,8 5,6 8 4 24 13 WSW 0 0,0
17.03.2019 23:00:00 2,4 -0,7 5,9 5,6 12 7 27 15 WSW 0 0,0
17.03.2019 22:00:00 2,8 0,2 5,9 5,6 7 4 13 7 SW 0 0,0
17.03.2019 21:00:00 3,5 0,9 5,9 5,6 4 2 29 16 W 0 0,4
17.03.2019 20:00:00 5,1 -0,3 5,9 5,5 16 9 50 27 E 0 0,0
17.03.2019 19:00:00 7,9 0,8 5,8 5,6 21 11 42 23 SE 0 0,0
17.03.2019 18:00:00 9,6 3,6 5,6 5,6 9 5 37 20 SSW 0 0,2
17.03.2019 17:00:00 12,8 0,5 5,3 5,6 15 8 34 19 SSW 0 0,0
17.03.2019 16:00:00 15,5 -1,1 4,9 5,6 17 9 34 19 SSW 18 0,0
17.03.2019 15:00:00 17,8 -2,0 4,3 5,6 13 7 32 18 SW 44 0,0
17.03.2019 14:00:00 19,2 -4,3 3,7 5,6 10 5 29 16 SW 60 0,0
17.03.2019 13:00:00 19,1 -5,8 3,1 5,6 13 7 38 20 WSW 60 0,0
17.03.2019 12:00:00 18,0 -0,3 2,7 5,6 13 7 24 13 SSW 57 0,0
17.03.2019 11:00:00 14,2 -2,7 2,5 5,6 2 1 9 5 ESE 58 0,0
17.03.2019 10:00:00 9,6 -1,8 2,6 5,7 0 0 6 4 N 60 0,0
17.03.2019 09:00:00 5,9 -2,0 2,6 5,7 4 2 6 4 NNE 51 0,0
17.03.2019 08:00:00 1,0 -3,3 2,7 5,7 3 2 7 4 N 0 0,0
17.03.2019 07:00:00 0,8 -3,7 2,7 5,7 0 0 10 5 N 0 0,0
17.03.2019 06:00:00 0,7 -4,0 2,8 5,7 5 3 11 6 N 0 0,0
17.03.2019 05:00:00 1,2 -3,7 2,8 5,7 9 5 14 8 NNW 0 0,0
17.03.2019 04:00:00 0,7 -3,4 2,9 5,7 4 2 7 4 WSW 0 0,0
17.03.2019 03:00:00 1,5 -3,6 2,9 5,7 6 3 11 6 N 0 0,0
17.03.2019 02:00:00 1,4 -2,4 3,0 5,7 3 2 9 5 NE 0 0,0
17.03.2019 01:00:00 1,9 -2,4 3,0 5,7 5 3 8 4 N 0 0,0
17.03.2019 00:00:00 2,5 -1,9 3,1 5,7 0 0 8 5 N 0 0,0
16.03.2019 23:00:00 2,8 -1,2 3,1 5,8 4 2 8 4 N 0 0,0
16.03.2019 22:00:00 3,4 -1,0 3,1 5,8 6 4 9 5 N 0 0,0
16.03.2019 21:00:00 4,3 -0,1 3,1 5,8 7 4 10 5 NNW 0 0,0
16.03.2019 20:00:00 5,2 0,4 3,1 5,8 5 3 9 5 N 0 0,0
16.03.2019 19:00:00 7,2 0,6 3,0 5,8 5 3 15 8 NNE 0 0,0
16.03.2019 18:00:00 9,2 0,4 2,9 5,8 5 3 14 8 N 13 0,0

tt = temperature
td = dewpoint
tt -20cm = temperature -20cm
tt -100cm = temperature -100cm
ff = wind speed
fx = gusts
dd = wind direction
sd = sunshine duration
rr = precipitation

Next stations